createdAt,value
2023-03-10T00:01:14.082Z,80.67
2023-03-10T00:05:08.148Z,80.67
2023-03-10T00:10:08.711Z,80.67
2023-03-10T00:15:08.796Z,80.66
2023-03-10T00:20:08.901Z,80.68
2023-03-10T00:25:08.964Z,80.67
2023-03-10T00:30:08.039Z,80.66
2023-03-10T00:35:08.075Z,80.64
2023-03-10T00:40:08.161Z,80.65
2023-03-10T00:45:08.256Z,80.64
2023-03-10T00:50:08.340Z,80.64
2023-03-10T00:55:08.398Z,80.66
2023-03-10T01:00:08.446Z,80.66
2023-03-10T01:05:08.485Z,80.65
2023-03-10T01:10:08.546Z,80.67
2023-03-10T01:15:08.609Z,80.68
2023-03-10T01:20:08.668Z,80.69
2023-03-10T01:25:08.756Z,80.68
2023-03-10T01:30:08.774Z,80.7
2023-03-10T01:35:08.845Z,80.69
2023-03-10T01:40:08.906Z,80.71
2023-03-10T01:45:18.921Z,80.71
2023-03-10T01:50:08.977Z,80.73
2023-03-10T01:55:08.023Z,80.75
2023-03-10T02:00:08.130Z,80.74
2023-03-10T02:05:08.179Z,80.73
2023-03-10T02:10:08.242Z,80.75
2023-03-10T02:15:08.335Z,80.73
2023-03-10T02:20:18.420Z,80.74
2023-03-10T02:25:08.477Z,80.74
2023-03-10T02:30:08.572Z,80.75
2023-03-10T02:35:08.692Z,80.76
2023-03-10T02:40:08.751Z,80.76
2023-03-10T02:45:08.765Z,80.75
2023-03-10T02:50:08.847Z,80.73
2023-03-10T02:55:08.912Z,80.74
2023-03-10T03:00:08.934Z,80.75
2023-03-10T03:05:08.028Z,80.76
2023-03-10T03:10:08.113Z,80.75
2023-03-10T03:15:08.141Z,80.75
2023-03-10T03:20:08.210Z,80.74
2023-03-10T03:25:08.266Z,80.75
2023-03-10T03:30:08.303Z,80.74
2023-03-10T03:35:08.388Z,80.73
2023-03-10T03:40:08.454Z,80.74
2023-03-10T03:45:08.477Z,80.74
2023-03-10T03:50:08.745Z,80.74
2023-03-10T03:55:08.840Z,80.73
2023-03-10T04:00:08.910Z,80.74
2023-03-10T04:05:09.063Z,80.75
2023-03-10T04:10:08.140Z,80.75
2023-03-10T04:15:08.272Z,80.75
2023-03-10T04:20:08.704Z,80.72
2023-03-10T04:25:08.925Z,80.72
2023-03-10T04:30:07.968Z,80.73
2023-03-10T04:35:07.987Z,80.72
2023-03-10T04:40:08.098Z,80.75
2023-03-10T04:45:08.201Z,80.75
2023-03-10T04:50:08.240Z,80.76
2023-03-10T04:55:08.342Z,80.74
2023-03-10T05:00:08.433Z,80.74
2023-03-10T05:05:02.993Z,80.75
2023-03-10T05:10:02.334Z,80.74
2023-03-10T05:15:02.892Z,80.77
2023-03-10T05:20:03.363Z,80.74
2023-03-10T05:25:02.738Z,80.75
2023-03-10T05:30:03.613Z,80.75
2023-03-10T05:35:03.325Z,80.75
2023-03-10T05:40:02.569Z,80.75
2023-03-10T05:45:03.142Z,80.76
2023-03-10T05:50:02.554Z,80.75
2023-03-10T05:55:03.177Z,80.82
2023-03-10T06:00:02.937Z,80.78
2023-03-10T06:05:02.354Z,80.76
2023-03-10T06:10:03.022Z,80.77
2023-03-10T06:15:02.471Z,80.77
2023-03-10T06:20:02.911Z,80.78
2023-03-10T06:25:03.391Z,80.8
2023-03-10T06:30:02.723Z,80.8
2023-03-10T06:35:03.266Z,80.79
2023-03-10T06:40:02.776Z,80.8
2023-03-10T06:45:03.536Z,80.82
2023-03-10T06:50:03.127Z,80.8
2023-03-10T06:55:02.576Z,80.81
2023-03-10T07:00:02.967Z,80.83
2023-03-10T07:05:02.667Z,80.82
2023-03-10T07:10:03.130Z,80.83
2023-03-10T07:15:02.483Z,80.83
2023-03-10T07:20:02.806Z,80.82
2023-03-10T07:25:03.306Z,80.83
2023-03-10T07:30:02.877Z,80.84
2023-03-10T07:35:03.712Z,80.83
2023-03-10T07:40:03.336Z,80.82
2023-03-10T07:45:02.757Z,80.83
2023-03-10T07:50:03.264Z,80.83
2023-03-10T07:55:02.605Z,80.84
2023-03-10T08:00:03.274Z,80.83
2023-03-10T08:05:03.389Z,80.83
2023-03-10T08:10:03.604Z,80.83
2023-03-10T08:15:03.008Z,80.85
2023-03-10T08:20:02.506Z,80.84
2023-03-10T08:25:02.814Z,80.85
2023-03-10T08:30:03.149Z,80.85
2023-03-10T08:35:02.397Z,80.85
2023-03-10T08:40:02.812Z,80.85
2023-03-10T08:45:03.094Z,80.86
2023-03-10T08:50:02.532Z,80.86
2023-03-10T08:55:02.913Z,80.86
2023-03-10T09:00:02.509Z,80.86
2023-03-10T09:05:02.872Z,80.88
2023-03-10T09:10:03.096Z,80.85
2023-03-10T09:15:02.463Z,80.84
2023-03-10T09:20:02.697Z,80.84
2023-03-10T09:25:02.961Z,80.84
2023-03-10T09:30:02.257Z,80.82
2023-03-10T09:35:02.599Z,80.8
2023-03-10T09:40:04.678Z,80.78
2023-03-10T09:45:03.416Z,80.75
2023-03-10T09:50:02.970Z,80.72
2023-03-10T09:55:02.214Z,80.7
2023-03-10T10:00:02.747Z,80.69
2023-03-10T10:05:04.109Z,80.68
2023-03-10T10:10:02.718Z,80.68
2023-03-10T10:15:03.183Z,80.69
2023-03-10T10:20:02.479Z,80.65
2023-03-10T10:25:03.325Z,80.66
2023-03-10T10:30:02.955Z,80.65
2023-03-10T10:35:02.566Z,80.63
2023-03-10T10:40:03.212Z,80.62
2023-03-10T10:45:02.483Z,80.62
2023-03-10T10:50:02.809Z,80.6
2023-03-10T10:55:03.639Z,80.62
2023-03-10T11:00:03.127Z,80.59
2023-03-10T11:05:02.666Z,80.6
2023-03-10T11:10:03.276Z,80.58
2023-03-10T11:15:02.777Z,80.6
2023-03-10T11:20:11.187Z,80.59
2023-03-10T11:25:02.658Z,80.59
2023-03-10T11:30:03.153Z,80.59
2023-03-10T11:35:02.856Z,80.62
2023-03-10T11:40:03.366Z,80.62
2023-03-10T11:45:03.075Z,80.62
2023-03-10T11:50:02.772Z,80.58
2023-03-10T11:55:03.004Z,80.58
2023-03-10T12:00:02.742Z,80.58
2023-03-10T12:05:03.716Z,80.53
2023-03-10T12:10:03.103Z,80.54
2023-03-10T12:15:02.434Z,80.52
2023-03-10T12:20:02.850Z,80.54
2023-03-10T12:25:03.306Z,80.55
2023-03-10T12:30:02.904Z,80.58
2023-03-10T12:35:03.285Z,80.57
2023-03-10T12:40:02.967Z,80.57
2023-03-10T12:45:02.434Z,80.6
2023-03-10T12:50:02.782Z,80.59
2023-03-10T12:55:03.271Z,80.62
2023-03-10T13:00:02.733Z,80.6
2023-03-10T13:05:03.235Z,80.62
2023-03-10T13:10:02.893Z,80.61
2023-03-10T13:15:03.565Z,80.58
2023-03-10T13:20:03.077Z,80.58
2023-03-10T13:25:02.292Z,80.57
2023-03-10T13:30:02.840Z,80.58
2023-03-10T13:35:03.198Z,80.56
2023-03-10T13:40:02.872Z,80.57
2023-03-10T13:45:03.653Z,80.57
2023-03-10T13:50:03.122Z,80.59
2023-03-10T13:55:02.397Z,80.59
2023-03-10T14:00:02.780Z,80.6
2023-03-10T14:05:03.257Z,80.6
2023-03-10T14:10:03.241Z,80.63
2023-03-10T14:15:02.533Z,80.65
2023-03-10T14:20:02.948Z,80.66
2023-03-10T14:25:02.437Z,80.66
2023-03-10T14:30:02.684Z,80.7
2023-03-10T14:35:03.187Z,80.7
2023-03-10T14:40:02.715Z,80.73
2023-03-10T14:45:04.735Z,80.76
2023-03-10T14:50:03.327Z,80.77
2023-03-10T14:55:02.845Z,80.82
2023-03-10T15:00:03.310Z,80.83
2023-03-10T15:05:03.019Z,80.85
2023-03-10T15:10:11.300Z,80.89
2023-03-10T15:15:03.304Z,80.92
2023-03-10T15:20:02.666Z,80.96
2023-03-10T15:25:02.931Z,80.97
2023-03-10T15:30:02.205Z,80.99
2023-03-10T15:35:02.517Z,81.02
2023-03-10T15:40:02.751Z,81.04
2023-03-10T15:45:03.018Z,81.04
2023-03-10T15:50:02.335Z,81.02
2023-03-10T15:55:02.518Z,81.03
2023-03-10T16:00:03.000Z,81.12
2023-03-10T16:05:02.436Z,81.06
2023-03-10T16:10:02.878Z,81.01
2023-03-10T16:15:03.144Z,80.98
2023-03-10T16:20:02.299Z,81.01
2023-03-10T16:25:02.663Z,81.04
2023-03-10T16:30:03.125Z,81.01
2023-03-10T16:35:02.531Z,81.04
2023-03-10T16:40:03.092Z,81.08
2023-03-10T16:45:02.462Z,81.1
2023-03-10T16:50:02.848Z,81.14
2023-03-10T16:55:03.269Z,81.18
2023-03-10T17:00:02.506Z,81.2
2023-03-10T17:05:03.095Z,81.21
2023-03-10T17:10:02.395Z,81.23
2023-03-10T17:15:02.604Z,81.23
2023-03-10T17:20:03.057Z,81.26
2023-03-10T17:25:02.304Z,81.26
2023-03-10T17:30:02.614Z,81.27
2023-03-10T17:35:02.992Z,81.3
2023-03-10T17:40:02.289Z,81.32
2023-03-10T17:45:02.459Z,81.33
2023-03-10T17:50:02.924Z,81.35
2023-03-10T17:55:03.282Z,81.41
2023-03-10T18:00:02.765Z,81.46
2023-03-10T18:05:03.218Z,81.47
2023-03-10T18:10:02.629Z,81.52
2023-03-10T18:15:02.877Z,81.54
2023-03-10T18:20:03.228Z,81.55
2023-03-10T18:25:02.580Z,81.57
2023-03-10T18:30:02.906Z,81.57
2023-03-10T18:35:03.330Z,81.57
2023-03-10T18:40:02.763Z,81.59
2023-03-10T18:45:03.074Z,81.6
2023-03-10T18:50:02.388Z,81.61
2023-03-10T18:55:02.662Z,81.62
2023-03-10T19:00:02.959Z,81.63
2023-03-10T19:05:02.290Z,81.64
2023-03-10T19:10:02.611Z,81.61
2023-03-10T19:15:02.996Z,81.62
2023-03-10T19:20:02.269Z,81.61
2023-03-10T19:25:02.634Z,81.63
2023-03-10T19:30:02.992Z,81.62
2023-03-10T19:35:04.463Z,81.61
2023-03-10T19:40:02.860Z,81.61
2023-03-10T19:45:03.124Z,81.61
2023-03-10T19:50:02.343Z,81.6
2023-03-10T19:55:02.754Z,81.61
2023-03-10T20:00:02.961Z,81.59
2023-03-10T20:05:02.365Z,81.58
2023-03-10T20:10:02.728Z,81.57
2023-03-10T20:15:02.826Z,81.56
2023-03-10T20:20:03.125Z,81.55
2023-03-10T20:25:02.367Z,81.54
2023-03-10T20:30:02.600Z,81.58
2023-03-10T20:35:02.853Z,81.56
2023-03-10T20:40:03.219Z,81.56
2023-03-10T20:45:02.570Z,81.55
2023-03-10T20:50:02.850Z,81.54
2023-03-10T20:55:02.994Z,81.54
2023-03-10T21:00:02.309Z,81.53
2023-03-10T21:05:02.428Z,81.53
2023-03-10T21:10:02.676Z,81.53
2023-03-10T21:15:03.020Z,81.53
2023-03-10T21:20:07.220Z,81.53
2023-03-10T21:25:02.535Z,81.53
2023-03-10T21:30:02.798Z,81.51
2023-03-10T21:35:03.054Z,81.52
2023-03-10T21:40:02.406Z,81.52
2023-03-10T21:45:02.681Z,81.51
2023-03-10T21:50:02.923Z,81.53
2023-03-10T21:55:03.322Z,81.52
2023-03-10T22:00:02.608Z,81.52
2023-03-10T22:05:03.034Z,81.54
2023-03-10T22:10:02.301Z,81.54
2023-03-10T22:15:02.493Z,81.54
2023-03-10T22:20:02.729Z,81.53
2023-03-10T22:25:02.979Z,81.52
2023-03-10T22:30:02.341Z,81.53
2023-03-10T22:35:02.683Z,81.54
2023-03-10T22:40:02.883Z,81.53
2023-03-10T22:45:03.098Z,81.52
2023-03-10T22:50:02.354Z,81.52
2023-03-10T22:55:02.657Z,81.53
2023-03-10T23:00:02.945Z,81.52
2023-03-10T23:05:14.972Z,81.53
2023-03-10T23:10:08.042Z,81.53
2023-03-10T23:15:15.310Z,81.53
2023-03-10T23:20:08.541Z,81.53
2023-03-10T23:25:08.606Z,81.52
2023-03-10T23:30:08.652Z,81.55
2023-03-10T23:35:08.728Z,81.52
2023-03-10T23:40:08.812Z,81.53
2023-03-10T23:45:08.880Z,81.54
2023-03-10T23:50:08.932Z,81.54
2023-03-10T23:55:08.000Z,81.53
